Time;durP1;ratioP1;P1;durP2;ratioP2;P2;SDS_P1;SDS_P2;PMS_P1;PMS_P2;Temp;Humidity;BMP_temperature;BMP_pressure;BME280_temperature;BME280_humidity;BME280_pressure;Samples;Min_cycle;Max_cycle;Signal;HPM_P1;HPM_P2
2022/06/07 00:02:43;;;;;;;0.10;0.10;;;18.70;99.90;;;17.47;75.43;99987.13;10498250;27;96511;-82
2022/06/07 00:07:46;;;;;;;0.00;0.00;;;18.60;99.90;;;17.43;76.14;99996.63;10499975;27;96711;-82
2022/06/07 00:12:49;;;;;;;0.40;0.20;;;18.60;99.90;;;17.37;75.94;99987.59;10496968;27;97348;-82
2022/06/07 00:17:52;;;;;;;0.00;0.00;;;18.60;99.90;;;17.32;76.40;99998.16;10539327;27;97519;-82
2022/06/07 00:22:56;;;;;;;0.10;0.10;;;18.50;99.90;;;17.24;76.44;99985.00;10540486;27;97069;-82
2022/06/07 00:27:59;;;;;;;0.17;0.17;;;18.40;99.90;;;17.11;76.68;99979.72;10540106;27;97376;-82
2022/06/07 00:33:04;;;;;;;0.10;0.10;;;18.30;99.90;;;17.01;77.40;99988.22;10523006;27;96506;-82
2022/06/07 00:38:07;;;;;;;0.10;0.10;;;18.20;99.90;;;16.95;77.61;99977.53;10540252;27;96626;-82
2022/06/07 00:43:10;;;;;;;0.00;0.00;;;18.10;99.90;;;16.93;78.10;99975.06;10539707;27;96540;-82
2022/06/07 00:48:14;;;;;;;0.22;0.13;;;18.00;99.90;;;16.93;78.52;99974.25;10539801;27;96428;-82
2022/06/07 00:53:27;;;;;;;0.20;0.10;;;18.10;99.90;;;16.84;78.39;99965.59;10510712;27;96579;-82
2022/06/07 00:58:30;;;;;;;0.05;0.05;;;18.00;99.90;;;16.75;79.01;99967.72;10540049;27;98502;-81
2022/06/07 01:03:33;;;;;;;0.20;0.10;;;17.90;99.90;;;16.75;79.60;99966.91;10533040;27;98458;-82
2022/06/07 01:13:57;;;;;;;0.28;0.10;;;17.90;99.90;;;16.79;79.76;99950.16;10538375;27;97469;-82
2022/06/07 01:19:01;;;;;;;0.28;0.28;;;18.00;99.90;;;16.78;79.49;99951.19;10537280;27;96923;-82
2022/06/07 01:24:05;;;;;;;0.20;0.20;;;18.00;99.90;;;16.77;79.43;99951.41;10523090;27;97567;-82
2022/06/07 01:29:10;;;;;;;0.20;0.20;;;17.90;99.90;;;16.71;79.49;99950.38;10537544;27;96927;-82
2022/06/07 01:34:14;;;;;;;0.10;0.10;;;17.90;99.90;;;16.63;79.76;99947.94;10537981;27;98333;-82
2022/06/07 01:44:47;;;;;;;0.00;0.00;;;17.80;99.90;;;16.60;80.44;99943.81;10538148;27;96611;-82
2022/06/07 01:49:50;;;;;;;1.20;0.10;;;17.80;99.90;;;16.63;80.65;99933.69;10538828;27;97744;-82
2022/06/07 01:54:53;;;;;;;0.35;0.20;;;17.80;99.90;;;16.58;80.58;99928.97;10536985;27;97387;-82
2022/06/07 01:59:56;;;;;;;0.30;0.20;;;17.80;99.90;;;16.56;80.83;99939.09;10538600;27;96726;-82
2022/06/07 02:04:59;;;;;;;0.30;0.10;;;17.70;99.90;;;16.53;80.96;99937.66;10538535;27;97588;-82
2022/06/07 02:10:03;;;;;;;0.10;0.05;;;17.70;99.90;;;16.48;80.86;99939.31;10533630;27;96681;-82
2022/06/07 02:15:07;;;;;;;0.17;0.08;;;17.70;99.90;;;16.39;80.98;99927.19;10534247;27;96624;-82
2022/06/07 02:20:10;;;;;;;0.00;0.00;;;17.60;99.90;;;16.35;81.10;99926.78;10496981;27;96652;-83
2022/06/07 02:25:13;;;;;;;0.08;0.08;;;17.60;99.90;;;16.29;81.33;99915.06;10504701;27;96385;-82
2022/06/07 02:30:16;;;;;;;0.20;0.20;;;17.50;99.90;;;16.18;81.43;99912.19;10503137;27;98063;-81
2022/06/07 02:35:19;;;;;;;0.20;0.20;;;17.40;99.90;;;16.10;81.35;99915.13;10503356;27;96444;-81
2022/06/07 02:40:23;;;;;;;0.00;0.00;;;17.30;99.90;;;16.00;81.71;99915.56;10502000;27;96569;-81
2022/06/07 02:45:26;;;;;;;0.22;0.22;;;17.20;99.90;;;15.87;82.08;99910.22;10497872;27;97420;-82
2022/06/07 02:50:29;;;;;;;0.13;0.10;;;17.10;99.90;;;15.82;82.87;99907.34;10502969;27;97656;-81
2022/06/07 02:55:33;;;;;;;0.32;0.28;;;17.00;99.90;;;15.77;83.36;99922.22;10506068;27;96753;-81
2022/06/07 03:00:37;;;;;;;0.10;0.10;;;17.00;99.90;;;15.73;83.22;99914.78;10500966;27;98353;-81
2022/06/07 03:05:40;;;;;;;0.20;0.20;;;17.00;99.90;;;15.70;83.78;99910.66;10515584;27;96557;-81
2022/06/07 03:10:43;;;;;;;0.00;0.00;;;16.90;99.90;;;15.70;84.09;99912.50;10498330;27;96454;-81
2022/06/07 03:15:47;;;;;;;0.10;0.03;;;16.90;99.90;;;15.70;84.41;99915.19;10519949;27;96685;-81
2022/06/07 03:20:52;;;;;;;0.13;0.10;;;16.90;99.90;;;15.70;84.98;99910.66;10524193;27;96888;-81
2022/06/07 03:26:07;;;;;;;0.20;0.10;;;16.80;99.90;;;15.75;85.38;99920.75;10542608;27;96505;-81
2022/06/07 03:31:14;;;;;;;0.63;0.47;;;16.90;99.90;;;15.83;85.29;99920.53;10540739;27;98638;-81
2022/06/07 03:36:28;;;;;;;0.10;0.10;;;17.00;99.90;;;15.92;85.33;99918.47;10522662;27;98225;-81
2022/06/07 03:41:31;;;;;;;0.20;0.20;;;17.10;99.90;;;16.00;85.41;99915.56;10540417;27;96740;-81
2022/06/07 03:46:34;;;;;;;0.47;0.10;;;17.20;99.90;;;16.11;85.49;99914.91;10541263;27;96582;-81
2022/06/07 03:51:38;;;;;;;0.13;0.10;;;17.20;99.90;;;16.29;85.93;99908.88;10541556;27;96738;-81
2022/06/07 03:56:41;;;;;;;0.47;0.30;;;17.40;99.90;;;16.41;85.46;99904.47;10539832;27;97438;-80
2022/06/07 04:01:44;;;;;;;0.25;0.20;;;17.50;99.90;;;16.56;85.59;99904.22;10537644;27;96607;-80
2022/06/07 04:12:13;;;;;;;0.17;0.17;;;17.80;99.90;;;16.89;85.53;99903.25;10532516;27;97598;-80
2022/06/07 04:17:16;;;;;;;0.32;0.25;;;18.00;99.90;;;17.05;85.39;99898.19;10536192;27;96689;-80
2022/06/07 04:22:20;;;;;;;0.38;0.20;;;18.10;99.90;;;17.18;84.79;99891.88;10534106;27;97402;-82
2022/06/07 04:27:23;;;;;;;0.40;0.30;;;18.30;99.90;;;17.33;85.04;99895.09;10538544;27;96508;-82
2022/06/07 04:32:26;;;;;;;0.30;0.25;;;18.40;99.90;;;17.47;84.64;99884.22;10535973;27;97428;-81
2022/06/07 04:37:29;;;;;;;0.57;0.57;;;18.60;99.90;;;17.60;84.13;99878.72;10540308;27;97617;-82
2022/06/07 04:42:32;;;;;;;0.35;0.20;;;18.70;99.90;;;17.73;83.69;99883.16;10539886;27;97276;-82
2022/06/07 04:47:37;;;;;;;0.77;0.52;;;18.80;99.90;;;17.86;83.32;99881.16;10518584;27;96742;-83
2022/06/07 04:52:40;;;;;;;0.75;0.30;;;19.00;99.90;;;18.01;82.63;99885.38;10508510;27;96655;-83
2022/06/07 04:57:43;;;;;;;0.40;0.30;;;19.10;99.90;;;18.12;82.54;99888.13;10534774;27;97434;-83
2022/06/07 05:02:48;;;;;;;0.40;0.30;;;19.20;99.90;;;18.26;81.63;99880.72;10513454;27;98605;-81
2022/06/07 05:07:50;;;;;;;0.30;0.20;;;19.30;99.90;;;18.37;80.83;99888.03;10517391;27;97459;-81
2022/06/07 05:12:53;;;;;;;0.93;0.40;;;19.50;99.90;;;18.52;80.35;99886.78;10536961;27;96494;-81
2022/06/07 05:17:56;;;;;;;0.25;0.22;;;19.60;99.90;;;18.64;80.28;99884.97;10527432;27;96891;-81
2022/06/07 05:23:00;;;;;;;0.40;0.28;;;19.70;99.90;;;18.82;79.81;99893.03;10534361;27;96611;-81
2022/06/07 05:28:03;;;;;;;0.70;0.43;;;19.80;99.90;;;18.99;79.53;99895.91;10539642;27;96974;-81
2022/06/07 05:33:06;;;;;;;0.40;0.40;;;20.00;99.90;;;19.10;78.11;99888.91;10538728;27;96569;-81
2022/06/07 05:38:12;;;;;;;0.73;0.35;;;20.20;99.90;;;19.26;78.10;99885.53;10530556;27;97661;-87
2022/06/07 05:43:15;;;;;;;2.50;0.40;;;20.30;99.90;;;19.46;77.74;99894.09;10501733;27;97578;-81
2022/06/07 05:48:18;;;;;;;0.65;0.32;;;20.50;99.90;;;19.69;77.58;99892.50;10536412;27;96614;-80
2022/06/07 05:53:21;;;;;;;0.40;0.10;;;20.70;99.90;;;19.89;77.25;99892.13;10545839;27;96620;-80
2022/06/07 05:58:25;;;;;;;0.80;0.60;;;20.90;99.90;;;20.07;76.90;99894.69;10541361;27;98141;-81
